createdAt,value
2023-04-09T00:00:12.970Z,10.30
2023-04-09T00:02:39.849Z,10.20
2023-04-09T00:05:07.644Z,11.15
2023-04-09T00:07:34.495Z,11.05
2023-04-09T00:10:01.620Z,10.65
2023-04-09T00:12:30.434Z,9.88
2023-04-09T00:14:57.573Z,10.63
2023-04-09T00:17:24.330Z,10.73
2023-04-09T00:19:51.205Z,9.40
2023-04-09T00:22:18.000Z,10.13
2023-04-09T00:24:45.073Z,11.30
2023-04-09T00:27:11.816Z,9.48
2023-04-09T00:29:38.609Z,9.90
2023-04-09T00:32:05.895Z,10.43
2023-04-09T00:34:32.805Z,9.23
2023-04-09T00:36:59.587Z,9.52
2023-04-09T00:39:27.142Z,9.50
2023-04-09T00:42:02.726Z,9.45
2023-04-09T00:44:30.178Z,10.95
2023-04-09T00:46:59.035Z,9.40
2023-04-09T00:49:26.630Z,10.27
2023-04-09T00:51:53.968Z,9.95
2023-04-09T00:54:20.841Z,10.10
2023-04-09T00:56:47.948Z,10.73
2023-04-09T00:59:15.139Z,10.35
2023-04-09T01:01:41.860Z,10.15
2023-04-09T01:04:08.868Z,10.25
2023-04-09T01:06:47.569Z,11.38
2023-04-09T01:09:19.948Z,12.82
2023-04-09T01:12:07.945Z,11.23
2023-04-09T01:14:49.910Z,11.00
2023-04-09T01:17:25.266Z,9.30
2023-04-09T01:19:59.841Z,11.63
2023-04-09T01:22:41.681Z,10.48
2023-04-09T01:25:41.020Z,9.57
2023-04-09T01:28:17.924Z,10.43
2023-04-09T01:30:47.609Z,10.38
2023-04-09T01:33:15.667Z,9.93
2023-04-09T01:35:44.239Z,8.80
2023-04-09T01:38:11.544Z,9.70
2023-04-09T01:40:39.029Z,9.75
2023-04-09T01:43:07.152Z,9.50
2023-04-09T01:45:34.552Z,10.20
2023-04-09T01:48:01.502Z,9.68
2023-04-09T01:50:28.504Z,9.88
2023-04-09T01:52:55.415Z,10.57
2023-04-09T01:55:22.140Z,9.50
2023-04-09T01:57:48.978Z,9.77
2023-04-09T02:00:15.895Z,10.50
2023-04-09T02:03:11.248Z,9.15
2023-04-09T02:05:42.602Z,9.65
2023-04-09T02:08:11.339Z,10.13
2023-04-09T02:10:39.687Z,10.02
2023-04-09T02:13:08.519Z,9.80
2023-04-09T02:15:36.957Z,10.07
2023-04-09T02:18:03.838Z,10.73
2023-04-09T02:20:30.870Z,9.82
2023-04-09T02:22:57.621Z,9.57
2023-04-09T02:25:25.128Z,9.50
2023-04-09T02:27:51.812Z,10.32
2023-04-09T02:30:18.533Z,9.93
2023-04-09T02:32:45.380Z,9.48
2023-04-09T02:35:12.102Z,9.35
2023-04-09T02:37:38.844Z,10.57
2023-04-09T02:40:05.980Z,9.05
2023-04-09T02:42:32.701Z,9.10
2023-04-09T02:44:59.430Z,9.43
2023-04-09T02:47:27.417Z,10.15
2023-04-09T02:49:54.160Z,10.52
2023-04-09T02:52:24.503Z,9.90
2023-04-09T02:54:51.345Z,9.65
2023-04-09T02:57:18.348Z,9.32
2023-04-09T02:59:45.740Z,11.13
2023-04-09T03:02:13.378Z,11.55
2023-04-09T03:04:40.314Z,10.25
2023-04-09T03:07:07.393Z,10.43
2023-04-09T03:09:34.101Z,10.65
2023-04-09T03:12:02.164Z,11.18
2023-04-09T03:14:30.330Z,9.20
2023-04-09T03:16:56.993Z,11.70
2023-04-09T03:19:23.926Z,9.93
2023-04-09T03:21:51.509Z,9.57
2023-04-09T03:24:22.283Z,9.80
2023-04-09T03:26:49.848Z,9.30
2023-04-09T03:29:16.664Z,9.20
2023-04-09T03:31:44.051Z,9.40
2023-04-09T03:34:11.258Z,9.85
2023-04-09T03:36:37.970Z,8.77
2023-04-09T03:39:10.534Z,10.15
2023-04-09T03:41:41.458Z,10.18
2023-04-09T03:46:58.867Z,9.07
2023-04-09T03:49:26.328Z,10.75
2023-04-09T03:51:56.209Z,10.98
2023-04-09T03:54:24.625Z,12.40
2023-04-09T03:56:52.397Z,11.13
2023-04-09T03:59:23.478Z,11.05
2023-04-09T04:01:50.376Z,10.02
2023-04-09T04:04:17.226Z,10.15
2023-04-09T04:06:48.312Z,10.48
2023-04-09T04:09:37.568Z,9.95
2023-04-09T04:12:09.090Z,9.55
2023-04-09T04:14:48.384Z,10.35
2023-04-09T04:17:28.228Z,10.40
2023-04-09T04:19:55.626Z,10.32
2023-04-09T04:22:25.957Z,9.95
2023-04-09T04:24:55.516Z,9.63
2023-04-09T04:27:23.165Z,11.02
2023-04-09T04:29:50.656Z,10.90
2023-04-09T04:32:36.096Z,10.93
2023-04-09T04:35:07.413Z,11.43
2023-04-09T04:37:34.860Z,10.15
2023-04-09T04:40:03.256Z,10.52
2023-04-09T04:42:32.457Z,10.02
2023-04-09T04:45:01.647Z,10.63
2023-04-09T04:47:45.872Z,10.63
2023-04-09T04:50:13.886Z,12.50
2023-04-09T04:52:52.832Z,9.95
2023-04-09T04:55:21.696Z,11.35
2023-04-09T04:57:50.987Z,10.82
2023-04-09T05:00:19.037Z,10.77
2023-04-09T05:02:46.854Z,9.95
2023-04-09T05:05:36.552Z,12.40
2023-04-09T05:08:03.412Z,10.30
2023-04-09T05:10:30.244Z,10.65
2023-04-09T05:12:58.440Z,11.05
2023-04-09T05:15:31.621Z,13.48
2023-04-09T05:17:59.745Z,11.13
2023-04-09T05:20:27.848Z,10.13
2023-04-09T05:25:45.837Z,8.80
2023-04-09T05:28:21.228Z,10.02
2023-04-09T05:30:53.195Z,11.45
2023-04-09T05:33:19.918Z,10.23
2023-04-09T05:35:46.728Z,9.70
2023-04-09T05:38:14.127Z,9.40
2023-04-09T05:40:45.181Z,9.32
2023-04-09T05:43:13.202Z,9.73
2023-04-09T05:45:43.041Z,9.65
2023-04-09T05:48:09.878Z,10.57
2023-04-09T05:50:51.160Z,9.55
2023-04-09T05:53:21.114Z,10.07
2023-04-09T05:55:49.534Z,9.55
2023-04-09T05:58:18.886Z,10.25
2023-04-09T06:00:46.876Z,9.85
2023-04-09T06:03:13.747Z,8.50
2023-04-09T06:05:40.667Z,7.80
2023-04-09T06:08:07.523Z,10.68
2023-04-09T06:10:34.555Z,9.23
2023-04-09T06:13:02.019Z,9.13
2023-04-09T06:15:28.836Z,8.85
2023-04-09T06:17:57.456Z,8.70
2023-04-09T06:20:25.630Z,9.10
2023-04-09T06:22:52.404Z,9.10
2023-04-09T06:25:19.182Z,8.77
2023-04-09T06:27:46.194Z,9.27
2023-04-09T06:30:13.086Z,10.02
2023-04-09T06:32:51.006Z,8.70
2023-04-09T06:35:20.766Z,8.73
2023-04-09T06:37:47.466Z,8.23
2023-04-09T06:40:14.717Z,9.15
2023-04-09T06:42:41.667Z,9.05
2023-04-09T06:45:19.726Z,7.97
2023-04-09T06:47:46.981Z,7.55
2023-04-09T06:50:13.723Z,8.48
2023-04-09T06:52:40.650Z,9.43
2023-04-09T06:55:07.639Z,8.38
2023-04-09T06:57:34.375Z,8.48
2023-04-09T07:00:01.087Z,8.70
2023-04-09T07:02:28.193Z,8.90
2023-04-09T07:04:55.141Z,10.48
2023-04-09T07:07:24.296Z,8.30
2023-04-09T07:09:53.685Z,9.05
2023-04-09T07:12:31.056Z,9.00
2023-04-09T07:15:02.248Z,8.13
2023-04-09T07:17:29.292Z,7.80
2023-04-09T07:19:56.013Z,8.32
2023-04-09T07:22:23.704Z,8.00
2023-04-09T07:24:54.392Z,7.85
2023-04-09T07:27:25.427Z,9.80
2023-04-09T07:29:55.894Z,7.68
2023-04-09T07:34:51.694Z,7.90
2023-04-09T07:37:19.089Z,7.72
2023-04-09T07:39:45.779Z,7.55
2023-04-09T07:42:12.821Z,8.23
2023-04-09T07:44:40.020Z,7.50
2023-04-09T07:47:08.745Z,8.40
2023-04-09T07:49:37.201Z,6.97
2023-04-09T07:52:04.607Z,6.00
2023-04-09T07:54:34.645Z,6.72
2023-04-09T07:57:06.778Z,8.38
2023-04-09T07:59:34.792Z,6.72
2023-04-09T08:02:01.699Z,5.90
2023-04-09T08:04:28.677Z,7.15
2023-04-09T08:06:55.679Z,5.47
2023-04-09T08:09:22.374Z,5.63
2023-04-09T08:11:50.099Z,5.28
2023-04-09T08:14:17.834Z,4.82
2023-04-09T08:16:46.520Z,5.80
2023-04-09T08:19:14.963Z,5.60
2023-04-09T08:21:44.515Z,5.57
2023-04-09T08:24:12.193Z,5.18
2023-04-09T08:26:39.531Z,6.43
2023-04-09T08:29:07.069Z,6.00
2023-04-09T08:31:33.869Z,5.45
2023-04-09T08:34:00.713Z,5.15
2023-04-09T08:36:27.894Z,5.13
2023-04-09T08:38:56.273Z,5.60
2023-04-09T08:41:24.980Z,5.13
2023-04-09T08:43:58.303Z,5.60
2023-04-09T08:46:29.028Z,5.40
2023-04-09T08:48:56.646Z,5.65
2023-04-09T08:51:24.274Z,5.10
2023-04-09T08:54:04.418Z,5.38
2023-04-09T08:56:32.079Z,6.60
2023-04-09T08:58:58.984Z,5.85
2023-04-09T09:01:33.444Z,5.80
2023-04-09T09:04:08.022Z,4.85
2023-04-09T09:06:40.025Z,5.78
2023-04-09T09:09:11.172Z,5.53
2023-04-09T09:11:39.426Z,4.80
2023-04-09T09:14:13.724Z,5.47
2023-04-09T09:16:44.789Z,5.43
2023-04-09T09:19:26.616Z,4.85
2023-04-09T09:22:04.209Z,5.13
2023-04-09T09:24:32.710Z,4.97
2023-04-09T09:26:59.674Z,5.72
2023-04-09T09:29:27.100Z,5.20
2023-04-09T09:31:54.938Z,5.35
2023-04-09T09:34:23.816Z,4.63
2023-04-09T09:36:50.687Z,5.40
2023-04-09T09:39:18.095Z,5.18
2023-04-09T09:41:46.066Z,5.32
2023-04-09T09:44:14.114Z,5.00
2023-04-09T09:46:42.637Z,5.32
2023-04-09T09:49:09.781Z,4.97
2023-04-09T09:51:37.966Z,4.50
2023-04-09T09:54:08.026Z,4.43
2023-04-09T09:56:39.699Z,4.32
2023-04-09T09:59:18.568Z,3.97
2023-04-09T10:01:46.385Z,4.35
2023-04-09T10:04:14.917Z,4.63
2023-04-09T10:06:44.167Z,3.90
2023-04-09T10:09:10.930Z,4.05
2023-04-09T10:11:38.124Z,3.97
2023-04-09T10:14:05.569Z,3.38
2023-04-09T10:16:33.143Z,3.65
2023-04-09T10:19:00.596Z,4.47
2023-04-09T10:21:39.231Z,3.53
2023-04-09T10:24:08.062Z,3.67
2023-04-09T10:26:35.764Z,3.72
2023-04-09T10:29:14.845Z,3.42
2023-04-09T10:31:51.642Z,3.33
2023-04-09T10:34:22.532Z,4.35
2023-04-09T10:36:55.683Z,4.90
2023-04-09T10:39:27.100Z,3.53
2023-04-09T10:41:54.731Z,3.50
2023-04-09T10:44:23.047Z,3.33
2023-04-09T10:46:50.567Z,4.15
2023-04-09T10:49:19.373Z,3.72
2023-04-09T10:52:16.016Z,3.83
2023-04-09T10:54:45.576Z,3.65
2023-04-09T10:57:19.152Z,3.53
2023-04-09T10:59:48.428Z,3.42
2023-04-09T11:02:38.535Z,3.03
2023-04-09T11:05:17.739Z,2.92
2023-04-09T11:07:47.516Z,3.03
2023-04-09T11:10:14.250Z,3.33
2023-04-09T11:12:41.376Z,3.55
2023-04-09T11:15:19.024Z,3.35
2023-04-09T11:17:49.433Z,3.50
2023-04-09T11:20:20.954Z,3.88
2023-04-09T11:22:49.529Z,3.22
2023-04-09T11:25:22.845Z,3.17
2023-04-09T11:27:49.646Z,2.97
2023-04-09T11:30:16.498Z,3.10
2023-04-09T11:32:43.233Z,2.50
2023-04-09T11:35:13.614Z,3.47
2023-04-09T11:37:41.755Z,3.53
2023-04-09T11:40:15.859Z,3.03
2023-04-09T11:42:43.588Z,3.08
2023-04-09T11:45:11.621Z,4.50
2023-04-09T11:47:41.826Z,3.45
2023-04-09T11:50:09.888Z,2.83
2023-04-09T11:52:36.697Z,3.88
2023-04-09T11:55:04.833Z,3.58
2023-04-09T11:57:47.876Z,3.63
2023-04-09T12:00:18.274Z,3.08
2023-04-09T12:02:47.561Z,4.00
2023-04-09T12:05:23.013Z,3.08
2023-04-09T12:07:56.291Z,3.05
2023-04-09T12:10:30.935Z,3.47
2023-04-09T12:13:06.582Z,3.20
2023-04-09T12:15:35.294Z,3.03
2023-04-09T12:18:02.545Z,3.17
2023-04-09T12:20:30.930Z,3.00
2023-04-09T12:22:58.567Z,2.85
2023-04-09T12:25:25.419Z,2.72
2023-04-09T12:27:52.114Z,3.22
2023-04-09T12:30:18.882Z,3.40
2023-04-09T12:32:46.538Z,2.90
2023-04-09T12:35:14.160Z,3.03
2023-04-09T12:37:42.431Z,2.60
2023-04-09T12:40:09.860Z,3.25
2023-04-09T12:42:36.611Z,2.92
2023-04-09T12:45:03.501Z,2.70
2023-04-09T12:47:30.294Z,2.63
2023-04-09T12:49:57.042Z,2.67
2023-04-09T12:52:24.866Z,2.83
2023-04-09T12:54:52.501Z,2.75
2023-04-09T12:57:19.251Z,2.75
2023-04-09T12:59:45.921Z,3.10
2023-04-09T13:02:12.788Z,2.58
2023-04-09T13:04:39.786Z,3.53
2023-04-09T13:07:06.905Z,2.63
2023-04-09T13:09:34.263Z,2.80
2023-04-09T13:12:01.827Z,3.47
2023-04-09T13:14:28.506Z,2.75
2023-04-09T13:16:55.290Z,2.95
2023-04-09T13:19:22.030Z,2.97
2023-04-09T13:21:48.719Z,2.97
2023-04-09T13:24:15.690Z,2.60
2023-04-09T13:26:42.579Z,2.85
2023-04-09T13:29:09.282Z,3.47
2023-04-09T13:31:37.382Z,2.80
2023-04-09T13:34:04.137Z,2.88
2023-04-09T13:36:31.771Z,4.63
2023-04-09T13:39:04.485Z,2.47
2023-04-09T13:41:34.520Z,2.55
2023-04-09T13:44:01.619Z,2.55
2023-04-09T13:46:28.525Z,2.65
2023-04-09T13:48:55.402Z,2.15
2023-04-09T13:51:23.178Z,2.67
2023-04-09T13:53:50.361Z,2.70
2023-04-09T13:56:17.117Z,2.92
2023-04-09T13:58:43.991Z,3.03
2023-04-09T14:01:11.695Z,2.92
2023-04-09T14:03:40.295Z,3.63
2023-04-09T14:06:08.684Z,2.83
2023-04-09T14:08:36.121Z,3.00
2023-04-09T14:11:03.249Z,3.17
2023-04-09T14:13:30.853Z,3.03
2023-04-09T14:15:59.277Z,3.33
2023-04-09T14:18:27.323Z,2.58
2023-04-09T14:20:53.998Z,3.50
2023-04-09T14:23:20.924Z,3.15
2023-04-09T14:25:47.867Z,2.92
2023-04-09T14:28:14.620Z,2.65
2023-04-09T14:30:41.392Z,2.88
2023-04-09T14:33:08.216Z,3.67
2023-04-09T14:35:35.129Z,4.07
2023-04-09T14:38:04.609Z,4.63
2023-04-09T14:40:32.119Z,3.28
2023-04-09T14:43:01.580Z,3.17
2023-04-09T14:45:31.353Z,4.43
2023-04-09T14:47:58.110Z,4.45
2023-04-09T14:50:24.864Z,3.80
2023-04-09T14:52:51.555Z,3.65
2023-04-09T14:55:18.640Z,3.25
2023-04-09T14:57:45.402Z,3.42
2023-04-09T15:00:12.850Z,3.42
2023-04-09T15:02:39.808Z,2.95
2023-04-09T15:05:07.586Z,2.88
2023-04-09T15:07:34.375Z,3.53
2023-04-09T15:10:01.284Z,3.53
2023-04-09T15:12:32.134Z,3.13
2023-04-09T15:14:59.186Z,3.45
2023-04-09T15:17:26.775Z,3.20
2023-04-09T15:19:54.144Z,3.33
2023-04-09T15:22:21.572Z,3.42
2023-04-09T15:24:48.284Z,3.33
2023-04-09T15:27:15.052Z,3.15
2023-04-09T15:29:41.804Z,3.25
2023-04-09T15:32:08.532Z,3.55
2023-04-09T15:34:35.284Z,3.55
2023-04-09T15:37:01.999Z,3.05
2023-04-09T15:39:28.960Z,3.25
2023-04-09T15:41:57.776Z,3.90
2023-04-09T15:44:24.970Z,4.25
2023-04-09T15:46:51.722Z,4.00
2023-04-09T15:49:19.764Z,4.25
2023-04-09T15:51:46.656Z,3.85
2023-04-09T15:54:13.630Z,5.25
2023-04-09T15:56:40.551Z,3.70
2023-04-09T15:59:08.566Z,4.55
2023-04-09T16:01:36.453Z,3.65
2023-04-09T16:04:04.649Z,3.72
2023-04-09T16:06:31.761Z,3.58
2023-04-09T16:08:58.665Z,4.72
2023-04-09T16:11:26.132Z,3.63
2023-04-09T16:13:53.360Z,3.47
2023-04-09T16:16:20.905Z,3.50
2023-04-09T16:18:47.813Z,3.40
2023-04-09T16:21:15.033Z,3.60
2023-04-09T16:23:41.734Z,4.13
2023-04-09T16:26:08.427Z,3.25
2023-04-09T16:28:35.106Z,3.20
2023-04-09T16:31:02.068Z,3.42
2023-04-09T16:33:28.803Z,3.35
2023-04-09T16:35:55.556Z,3.78
2023-04-09T16:38:23.814Z,3.15
2023-04-09T16:40:50.773Z,3.53
2023-04-09T16:43:17.480Z,3.33
2023-04-09T16:45:44.463Z,3.15
2023-04-09T16:48:12.602Z,3.40
2023-04-09T16:50:40.458Z,3.05
2023-04-09T16:53:07.972Z,3.70
2023-04-09T16:55:35.343Z,3.25
2023-04-09T16:58:02.146Z,3.53
2023-04-09T17:00:28.958Z,3.30
2023-04-09T17:02:57.952Z,3.50
2023-04-09T17:05:25.163Z,3.70
2023-04-09T17:07:53.692Z,3.30
2023-04-09T17:10:20.928Z,3.05
2023-04-09T17:12:48.246Z,3.45
2023-04-09T17:15:14.977Z,3.95
2023-04-09T17:17:43.725Z,3.92
2023-04-09T17:20:11.521Z,3.55
2023-04-09T17:22:39.412Z,3.75
2023-04-09T17:25:06.600Z,3.78
2023-04-09T17:27:33.491Z,3.47
2023-04-09T17:30:00.479Z,3.75
2023-04-09T17:32:27.812Z,5.07
2023-04-09T17:34:54.597Z,3.70
2023-04-09T17:37:21.416Z,3.92
2023-04-09T17:39:48.203Z,3.58
2023-04-09T17:42:15.050Z,3.50
2023-04-09T17:44:43.913Z,4.40
2023-04-09T17:47:12.441Z,3.60
2023-04-09T17:49:39.691Z,3.67
2023-04-09T17:52:06.630Z,3.03
2023-04-09T17:54:36.975Z,3.33
2023-04-09T17:59:32.712Z,3.70
2023-04-09T18:01:59.566Z,3.95
2023-04-09T18:04:27.234Z,3.65
2023-04-09T18:06:54.829Z,4.15
2023-04-09T18:09:21.641Z,3.75
2023-04-09T18:11:49.162Z,4.65
2023-04-09T18:14:15.941Z,3.92
2023-04-09T18:16:43.083Z,3.58
2023-04-09T18:19:11.963Z,3.72
2023-04-09T18:21:38.873Z,4.28
2023-04-09T18:24:05.823Z,4.47
2023-04-09T18:26:33.975Z,4.18
2023-04-09T18:29:01.373Z,4.10
2023-04-09T18:31:28.823Z,4.50
2023-04-09T18:33:56.250Z,4.25
2023-04-09T18:36:23.478Z,4.30
2023-04-09T18:38:50.164Z,4.72
2023-04-09T18:41:23.801Z,4.53
2023-04-09T18:43:50.627Z,4.28
2023-04-09T18:46:18.350Z,3.90
2023-04-09T18:48:47.160Z,4.60
2023-04-09T18:51:14.677Z,5.43
2023-04-09T18:53:42.231Z,4.75
2023-04-09T18:56:09.197Z,4.68
2023-04-09T18:58:36.463Z,5.18
2023-04-09T19:01:11.352Z,5.25
2023-04-09T19:03:39.047Z,4.60
2023-04-09T19:06:18.205Z,5.13
2023-04-09T19:08:45.755Z,4.55
2023-04-09T19:11:13.034Z,4.72
2023-04-09T19:13:40.080Z,4.90
2023-04-09T19:16:09.379Z,5.28
2023-04-09T19:18:37.358Z,5.03
2023-04-09T19:21:05.219Z,5.65
2023-04-09T19:23:34.213Z,4.97
2023-04-09T19:26:01.974Z,6.75
2023-04-09T19:28:29.104Z,5.32
2023-04-09T19:30:55.889Z,6.72
2023-04-09T19:33:27.098Z,4.72
2023-04-09T19:35:55.492Z,5.35
2023-04-09T19:38:22.542Z,4.80
2023-04-09T19:40:49.615Z,5.45
2023-04-09T19:43:16.643Z,5.72
2023-04-09T19:45:43.704Z,6.30
2023-04-09T19:48:10.733Z,6.40
2023-04-09T19:50:38.510Z,5.95
2023-04-09T19:53:06.209Z,6.13
2023-04-09T19:55:35.983Z,5.88
2023-04-09T19:58:03.398Z,5.10
2023-04-09T20:00:30.747Z,6.05
2023-04-09T20:02:57.910Z,6.40
2023-04-09T20:05:24.799Z,5.20
2023-04-09T20:07:52.898Z,5.63
2023-04-09T20:10:20.024Z,7.00
2023-04-09T20:12:48.334Z,6.43
2023-04-09T20:15:15.869Z,7.35
2023-04-09T20:17:42.891Z,5.60
2023-04-09T20:20:09.863Z,6.35
2023-04-09T20:22:36.640Z,6.63
2023-04-09T20:25:03.736Z,5.88
2023-04-09T20:27:31.500Z,6.65
2023-04-09T20:29:58.224Z,5.65
2023-04-09T20:32:25.032Z,9.10
2023-04-09T20:34:52.003Z,5.53
2023-04-09T20:37:18.730Z,6.32
2023-04-09T20:39:45.657Z,5.95
2023-04-09T20:42:12.373Z,6.18
2023-04-09T20:44:39.255Z,6.55
2023-04-09T20:47:07.345Z,5.88
2023-04-09T20:49:34.126Z,5.93
2023-04-09T20:52:00.915Z,7.75
2023-04-09T20:54:28.017Z,6.43
2023-04-09T20:56:55.259Z,7.93
2023-04-09T20:59:22.055Z,6.45
2023-04-09T21:01:49.143Z,6.15
2023-04-09T21:04:16.229Z,5.97
2023-04-09T21:06:43.183Z,7.72
2023-04-09T21:09:09.888Z,6.03
2023-04-09T21:11:36.647Z,7.00
2023-04-09T21:14:04.252Z,6.78
2023-04-09T21:16:31.497Z,7.85
2023-04-09T21:19:07.090Z,7.80
2023-04-09T21:21:34.659Z,8.27
2023-04-09T21:24:01.552Z,7.68
2023-04-09T21:26:35.828Z,7.78
2023-04-09T21:29:11.947Z,7.65
2023-04-09T21:31:41.589Z,7.97
2023-04-09T21:34:08.344Z,7.43
2023-04-09T21:36:37.813Z,6.30
2023-04-09T21:39:04.603Z,7.68
2023-04-09T21:41:31.402Z,7.68
2023-04-09T21:43:58.136Z,8.18
2023-04-09T21:46:25.303Z,7.55
2023-04-09T21:48:52.324Z,7.90
2023-04-09T21:51:19.311Z,7.70
2023-04-09T21:53:48.046Z,8.82
2023-04-09T21:56:14.818Z,7.53
2023-04-09T21:58:41.537Z,7.80
2023-04-09T22:01:13.111Z,8.70
2023-04-09T22:03:45.860Z,7.53
2023-04-09T22:06:12.549Z,7.28
2023-04-09T22:08:52.859Z,7.18
2023-04-09T22:11:28.156Z,7.82
2023-04-09T22:13:56.732Z,8.15
2023-04-09T22:16:23.901Z,8.30
2023-04-09T22:18:51.700Z,8.00
2023-04-09T22:21:18.721Z,8.75
2023-04-09T22:23:45.511Z,8.13
2023-04-09T22:26:12.311Z,8.27
2023-04-09T22:28:39.477Z,8.15
2023-04-09T22:31:06.615Z,8.50
2023-04-09T22:33:33.681Z,9.25
2023-04-09T22:36:03.542Z,8.15
2023-04-09T22:38:30.308Z,8.38
2023-04-09T22:40:57.064Z,7.28
2023-04-09T22:43:23.829Z,7.93
2023-04-09T22:45:52.235Z,9.98
2023-04-09T22:48:19.553Z,8.15
2023-04-09T22:50:46.624Z,7.68
2023-04-09T22:53:18.777Z,7.95
2023-04-09T22:55:47.662Z,6.60
2023-04-09T22:58:14.754Z,8.23
2023-04-09T23:00:41.512Z,8.75
2023-04-09T23:03:08.533Z,7.82
2023-04-09T23:05:35.640Z,8.40
2023-04-09T23:08:02.480Z,10.80
2023-04-09T23:10:29.239Z,8.73
2023-04-09T23:12:57.336Z,8.88
2023-04-09T23:15:24.035Z,8.77
2023-04-09T23:17:51.990Z,8.88
2023-04-09T23:20:18.867Z,9.18
2023-04-09T23:22:46.650Z,7.63
2023-04-09T23:25:14.965Z,8.13
2023-04-09T23:27:41.778Z,8.10
2023-04-09T23:30:09.523Z,7.90
2023-04-09T23:32:36.528Z,8.15
2023-04-09T23:35:04.564Z,8.45
2023-04-09T23:37:31.304Z,9.18
2023-04-09T23:39:58.073Z,8.38
2023-04-09T23:42:26.326Z,8.00
2023-04-09T23:44:53.041Z,8.10
2023-04-09T23:47:19.770Z,7.75
2023-04-09T23:49:46.853Z,7.97
2023-04-09T23:52:13.817Z,8.50
2023-04-09T23:54:49.065Z,8.27
2023-04-09T23:57:15.810Z,8.18
2023-04-09T23:59:42.476Z,9.93
